This is the latest recevied weather packets stored in our database for station/object KI7CSN-13. If no packets are shown the sender has not sent any weather packets the latest 10 day(s).
| Time | Temp. | Humidity | Pressure | Rain* | Wind** | Luminosity | Snow |
|---|---|---|---|---|---|---|---|
| 1778014360 | 17.22° C | 31% | 978.9 hPa | 0 mm | - | - | - |
| 1778014060 | 18.89° C | 29% | 978.9 hPa | 0 mm | - | - | - |
| 1778013760 | 17.22° C | 31% | 978.8 hPa | 0 mm | - | - | - |
| 1778013460 | 17.22° C | 31% | 978.8 hPa | 0 mm | - | - | - |
| 1778013160 | 18.33° C | 29% | 978.8 hPa | 0 mm | - | - | - |
| 1778012860 | 17.22° C | 32% | 978.8 hPa | 0 mm | - | - | - |
| 1778012560 | 17.22° C | 33% | 978.9 hPa | 0 mm | - | - | - |
| 1778012260 | 17.22° C | 31% | 978.9 hPa | 0 mm | - | - | - |
| 1778011960 | 17.78° C | 31% | 979 hPa | 0 mm | - | - | - |
| 1778011660 | 17.22° C | 31% | 979 hPa | 0 mm | - | - | - |
| 1778011360 | 17.22° C | 31% | 979 hPa | 0 mm | - | - | - |
| 1778011060 | 17.22° C | 31% | 979 hPa | 0 mm | - | - | - |
| 1778010760 | 18.33° C | 33% | 979 hPa | 0 mm | - | - | - |
| 1778010460 | 17.78° C | 33% | 979 hPa | 0 mm | - | - | - |
| 1778010160 | 19.44° C | 31% | 979 hPa | 0 mm | - | - | - |
| 1778009860 | 16.67° C | 35% | 979.3 hPa | 0 mm | - | - | - |
| 1778009560 | 17.22° C | 33% | 979.1 hPa | 0 mm | - | - | - |
| 1778009260 | 17.22° C | 33% | 979 hPa | 0 mm | - | - | - |
| 1778008960 | 17.22° C | 33% | 979 hPa | 0 mm | - | - | - |
| 1778008660 | 17.22° C | 33% | 979.1 hPa | 0 mm | - | - | - |
| 1778008360 | 18.33° C | 31% | 979 hPa | 0 mm | - | - | - |
| 1778008060 | 17.22° C | 33% | 979.3 hPa | 0 mm | - | - | - |
| 1778007760 | 17.22° C | 33% | 979.1 hPa | 0 mm | - | - | - |
| 1778007460 | 17.78° C | 33% | 979.1 hPa | 0 mm | - | - | - |
| 1778007160 | 16.67° C | 35% | 979.1 hPa | 0 mm | - | - | - |
* Rain latest hour (hover to see other rain measurements)
** Current wind speed in m/s (hover to see current wind gust speed)